Time;durP1;ratioP1;P1;durP2;ratioP2;P2;SDS_P1;SDS_P2;PMS_P1;PMS_P2;Temp;Humidity;BMP_temperature;BMP_pressure;BME280_temperature;BME280_humidity;BME280_pressure;Samples;Min_cycle;Max_cycle;Signal;HPM_P1;HPM_P2
2023/10/24 00:02:24;;;;;;;7.60;5.40;;;;;;;11.82;77.05;100414.40;108285;1254;61771;-78
2023/10/24 00:04:51;;;;;;;8.60;6.20;;;;;;;11.83;76.80;100413.43;108320;1252;60291;-78
2023/10/24 00:07:18;;;;;;;9.10;5.60;;;;;;;11.83;76.66;100416.27;108325;1255;73909;-77
2023/10/24 00:09:45;;;;;;;7.60;5.50;;;;;;;11.83;76.51;100414.73;108257;1254;72677;-77
2023/10/24 00:12:11;;;;;;;7.30;5.50;;;;;;;11.82;76.33;100419.59;108273;1256;72648;-78
2023/10/24 00:14:38;;;;;;;9.30;5.60;;;;;;;11.78;76.20;100416.11;108290;1254;61779;-78
2023/10/24 00:17:05;;;;;;;9.30;5.30;;;;;;;11.75;76.03;100419.75;108286;1253;60314;-78
2023/10/24 00:19:32;;;;;;;8.80;5.60;;;;;;;11.71;75.99;100419.38;108345;1254;73932;-78
2023/10/24 00:22:00;;;;;;;8.80;5.30;;;;;;;11.67;76.02;100422.54;108326;1252;72531;-78
2023/10/24 00:24:27;;;;;;;7.10;5.70;;;;;;;11.62;76.01;100424.84;108327;1254;72603;-77
2023/10/24 00:26:55;;;;;;;7.40;5.40;;;;;;;11.58;76.10;100427.40;108267;1254;60453;-79
2023/10/24 00:29:22;;;;;;;7.10;5.60;;;;;;;11.54;76.04;100429.54;108265;1252;60266;-77
2023/10/24 00:31:48;;;;;;;7.10;5.20;;;;;;;11.48;76.10;100432.74;108306;1254;73655;-78
2023/10/24 00:34:26;;;;;;;8.40;5.40;;;;;;;11.45;76.23;100429.20;108278;1253;72680;-79
2023/10/24 00:36:53;;;;;;;7.10;5.60;;;;;;;11.41;76.25;100429.36;108291;1253;73591;-78
2023/10/24 00:39:20;;;;;;;9.90;5.50;;;;;;;11.39;76.31;100431.29;108329;1253;60485;-77
2023/10/24 00:41:46;;;;;;;8.10;5.90;;;;;;;11.40;76.29;100433.59;108263;1253;60402;-78
2023/10/24 00:44:14;;;;;;;9.70;5.60;;;;;;;11.37;76.19;100436.04;108346;1253;73911;-78
2023/10/24 00:46:41;;;;;;;7.50;5.10;;;;;;;11.30;76.45;100440.41;108213;1253;72621;-79
2023/10/24 00:49:08;;;;;;;7.90;5.70;;;;;;;11.26;76.55;100438.16;108314;1255;72640;-78
2023/10/24 00:51:35;;;;;;;7.90;5.60;;;;;;;11.23;76.70;100441.04;108277;1253;61781;-76
2023/10/24 00:54:02;;;;;;;7.20;5.40;;;;;;;11.19;76.73;100441.94;108018;1253;60448;-77
2023/10/24 00:56:29;;;;;;;7.80;4.90;;;;;;;11.16;76.98;100442.83;108249;1254;73794;-77
2023/10/24 00:58:57;;;;;;;6.80;5.50;;;;;;;11.13;77.04;100442.73;108342;1253;71176;-78
2023/10/24 01:01:23;;;;;;;8.20;5.70;;;;;;;11.11;77.16;100440.15;108098;1254;72458;-80
2023/10/24 01:03:50;;;;;;;8.60;6.30;;;;;;;11.08;77.19;100441.05;108321;1252;61764;-79
2023/10/24 01:06:18;;;;;;;7.90;6.10;;;;;;;11.05;77.25;100439.60;108244;1254;60531;-78
2023/10/24 01:08:45;;;;;;;10.10;5.80;;;;;;;11.02;77.45;100438.25;108277;1254;73908;-79
2023/10/24 01:11:12;;;;;;;7.30;5.40;;;;;;;11.02;77.52;100438.80;108280;1254;72453;-78
2023/10/24 01:13:41;;;;;;;8.20;5.90;;;;;;;11.01;77.58;100444.71;108262;1254;72455;-76
2023/10/24 01:16:07;;;;;;;7.00;5.80;;;;;;;11.00;77.54;100448.88;108115;1253;60416;-78
2023/10/24 01:18:35;;;;;;;6.40;5.40;;;;;;;10.98;77.63;100448.98;108312;1254;60332;-76
2023/10/24 01:21:02;;;;;;;7.20;5.60;;;;;;;10.97;77.73;100445.93;108205;1254;73771;-77
2023/10/24 01:23:30;;;;;;;9.00;5.50;;;;;;;10.97;77.87;100446.89;108385;1251;72702;-78
2023/10/24 01:25:57;;;;;;;9.20;5.80;;;;;;;10.96;77.94;100447.27;108281;1255;72960;-78
2023/10/24 01:28:25;;;;;;;7.20;5.80;;;;;;;10.97;77.92;100451.17;108311;1253;61249;-78
2023/10/24 01:30:53;;;;;;;8.40;6.20;;;;;;;10.97;77.99;100453.26;108420;1252;60034;-79
2023/10/24 01:33:21;;;;;;;8.70;6.60;;;;;;;10.97;77.97;100456.90;108367;1251;73830;-78
2023/10/24 01:35:48;;;;;;;9.30;5.80;;;;;;;10.96;77.95;100457.32;108345;1254;72579;-78
2023/10/24 01:38:15;;;;;;;7.20;5.60;;;;;;;10.95;77.98;100455.54;108198;1254;71198;-79
2023/10/24 01:40:41;;;;;;;9.30;6.60;;;;;;;10.95;77.98;100457.36;108237;1253;60398;-78
2023/10/24 01:43:09;;;;;;;8.40;5.70;;;;;;;10.92;77.90;100457.57;108273;1252;60323;-78
2023/10/24 01:45:36;;;;;;;7.50;5.70;;;;;;;10.88;77.88;100454.29;108280;1255;73692;-79
2023/10/24 01:48:04;;;;;;;7.90;5.30;;;;;;;10.85;77.85;100451.87;108249;1254;72682;-78
2023/10/24 01:50:33;;;;;;;7.10;5.20;;;;;;;10.81;77.81;100450.46;108332;1254;71190;-76
2023/10/24 01:53:13;;;;;;;9.80;6.00;;;;;;;10.78;77.85;100457.83;108326;1252;61901;-77
2023/10/24 01:55:43;;;;;;;8.50;5.80;;;;;;;10.76;77.75;100459.41;108267;1254;60046;-77
2023/10/24 01:58:28;;;;;;;9.80;6.20;;;;;;;10.69;77.82;100459.77;108090;1254;72496;-78
2023/10/24 02:00:59;;;;;;;9.40;6.10;;;;;;;10.62;77.97;100458.29;108291;1254;72624;-78
2023/10/24 02:03:33;;;;;;;7.60;5.70;;;;;;;10.57;78.09;100457.72;108227;1253;72212;-77
2023/10/24 02:06:08;;;;;;;7.90;5.90;;;;;;;10.53;78.19;100457.75;108284;1254;60503;-78
2023/10/24 02:08:39;;;;;;;8.10;6.00;;;;;;;10.52;78.26;100462.67;108346;1253;60290;-79
2023/10/24 02:11:13;;;;;;;8.50;5.80;;;;;;;10.52;78.25;100463.58;108292;1254;73970;-78
2023/10/24 02:13:51;;;;;;;8.60;6.40;;;;;;;10.48;78.27;100470.38;108156;1253;72924;-78
2023/10/24 02:16:26;;;;;;;8.60;5.90;;;;;;;10.44;78.37;100474.53;108238;1253;72510;-78
2023/10/24 02:19:04;;;;;;;7.80;5.70;;;;;;;10.42;78.47;100473.66;108276;1252;60521;-77
2023/10/24 02:21:40;;;;;;;8.80;6.60;;;;;;;10.34;78.74;100477.92;108310;1254;60417;-79
2023/10/24 02:24:22;;;;;;;9.30;6.30;;;;;;;10.28;79.00;100479.39;108375;1251;76482;-78
2023/10/24 02:26:56;;;;;;;7.80;6.50;;;;;;;10.25;79.15;100480.30;108270;1256;72807;-77
2023/10/24 02:29:36;;;;;;;9.00;5.90;;;;;;;10.21;79.36;100479.84;108230;1254;71654;-78
2023/10/24 02:32:06;;;;;;;8.90;6.30;;;;;;;10.17;79.52;100478.38;108250;1252;63321;-78
2023/10/24 02:34:32;;;;;;;10.10;6.80;;;;;;;10.13;79.63;100479.77;108357;1253;62579;-78
2023/10/24 02:36:59;;;;;;;9.70;6.40;;;;;;;10.10;79.80;100482.91;108204;1254;59446;-78
2023/10/24 02:39:25;;;;;;;10.20;6.60;;;;;;;10.06;79.87;100484.39;108211;1254;60472;-77
2023/10/24 02:41:52;;;;;;;8.60;6.00;;;;;;;10.04;79.93;100487.83;108334;1254;72545;-77
2023/10/24 02:44:20;;;;;;;9.80;6.40;;;;;;;10.00;79.98;100485.83;108313;1251;60450;-78
2023/10/24 02:46:47;;;;;;;9.20;6.80;;;;;;;9.97;80.17;100486.48;108356;1251;60331;-79
2023/10/24 02:49:14;;;;;;;8.80;6.40;;;;;;;9.95;80.23;100490.63;108372;1253;73920;-79
2023/10/24 02:51:41;;;;;;;9.60;6.70;;;;;;;9.91;80.29;100492.63;108258;1254;71622;-78
2023/10/24 02:54:09;;;;;;;11.20;7.10;;;;;;;9.87;80.56;100492.02;108363;1253;71098;-79
2023/10/24 02:56:35;;;;;;;8.10;6.50;;;;;;;9.84;80.54;100492.79;108432;1254;60923;-78
2023/10/24 02:59:05;;;;;;;9.70;6.60;;;;;;;9.81;80.66;100496.44;108336;1251;60422;-78
2023/10/24 03:01:32;;;;;;;10.20;6.90;;;;;;;9.78;80.86;100498.75;108180;1251;73229;-78
2023/10/24 03:03:59;;;;;;;7.80;6.40;;;;;;;9.76;81.03;100495.16;108330;1254;73957;-78
2023/10/24 03:06:25;;;;;;;10.00;6.70;;;;;;;9.74;80.87;100493.38;108308;1253;72883;-76
2023/10/24 03:08:52;;;;;;;10.00;7.40;;;;;;;9.71;80.95;100493.20;108174;1253;60284;-77
2023/10/24 03:11:23;;;;;;;8.60;6.80;;;;;;;9.67;81.00;100491.08;108276;1253;60283;-78
2023/10/24 03:13:51;;;;;;;9.10;7.30;;;;;;;9.65;80.99;100485.94;108285;1254;74037;-79
2023/10/24 03:16:19;;;;;;;10.00;6.90;;;;;;;9.67;81.10;100482.31;108179;1254;71507;-78
2023/10/24 03:18:47;;;;;;;10.80;7.10;;;;;;;9.62;81.07;100486.29;108284;1252;72729;-78
2023/10/24 03:21:16;;;;;;;9.00;6.70;;;;;;;9.59;81.21;100486.67;108250;1255;60810;-77
2023/10/24 03:23:44;;;;;;;9.90;7.40;;;;;;;9.54;81.37;100481.41;108136;1254;61086;-77
2023/10/24 03:26:10;;;;;;;9.90;7.60;;;;;;;9.52;81.56;100484.90;108325;1255;73745;-78
2023/10/24 03:28:38;;;;;;;9.40;7.40;;;;;;;9.49;81.52;100483.43;108156;1254;72960;-77
2023/10/24 03:31:05;;;;;;;9.20;7.60;;;;;;;9.46;81.63;100485.80;108253;1254;70575;-77
2023/10/24 03:33:32;;;;;;;10.90;7.50;;;;;;;9.43;81.77;100487.33;108305;1254;60648;-78
2023/10/24 03:35:59;;;;;;;10.00;7.50;;;;;;;9.39;81.90;100488.24;108230;1253;60469;-78
2023/10/24 03:38:27;;;;;;;11.80;8.10;;;;;;;9.35;82.13;100492.20;108073;1253;241933;-78
2023/10/24 03:40:54;;;;;;;11.00;7.90;;;;;;;9.30;82.50;100491.12;108320;1254;73270;-79
2023/10/24 03:43:21;;;;;;;11.10;8.70;;;;;;;9.26;82.69;100494.44;108290;1251;72998;-79
2023/10/24 03:45:48;;;;;;;10.80;8.00;;;;;;;9.24;82.93;100502.36;108348;1252;62260;-78
2023/10/24 03:48:14;;;;;;;12.00;8.10;;;;;;;9.22;83.02;100503.61;108266;1253;60264;-78
2023/10/24 03:50:41;;;;;;;14.80;9.20;;;;;;;9.20;83.07;100505.71;108334;1254;72943;-77
2023/10/24 03:53:10;;;;;;;11.50;8.00;;;;;;;9.16;83.34;100504.62;108328;1254;72554;-78
2023/10/24 03:55:37;;;;;;;10.00;8.60;;;;;;;9.16;83.45;100499.71;108256;1252;60537;-78
2023/10/24 03:58:07;;;;;;;9.90;7.70;;;;;;;9.15;83.51;100499.49;108267;1252;62032;-78
2023/10/24 04:00:33;;;;;;;13.20;9.30;;;;;;;9.14;83.43;100503.37;108331;1254;60466;-79
2023/10/24 04:03:00;;;;;;;10.20;8.60;;;;;;;9.13;83.56;100506.65;108260;1253;72697;-76
2023/10/24 04:05:28;;;;;;;12.00;9.10;;;;;;;9.11;83.62;100506.63;108348;1254;71739;-77
2023/10/24 04:07:54;;;;;;;10.50;8.50;;;;;;;9.10;83.62;100508.21;108100;1253;72683;-79
2023/10/24 04:10:21;;;;;;;11.90;9.20;;;;;;;9.08;83.68;100506.16;108352;1252;60764;-77
2023/10/24 04:12:48;;;;;;;13.00;9.30;;;;;;;9.05;83.80;100506.14;108315;1252;59599;-77
2023/10/24 04:15:14;;;;;;;11.30;8.40;;;;;;;9.02;83.80;100508.77;108260;1253;73948;-78
2023/10/24 04:17:41;;;;;;;12.00;8.80;;;;;;;9.01;83.87;100510.80;108318;1254;72812;-78
2023/10/24 04:20:41;;;;;;;13.20;10.10;;;;;;;8.99;83.81;100508.20;108244;1254;71450;-78
2023/10/24 04:23:13;;;;;;;13.40;9.10;;;;;;;8.98;83.90;100509.50;108264;1253;62982;-79
2023/10/24 04:25:39;;;;;;;13.10;9.00;;;;;;;9.00;83.71;100511.45;108325;1254;60507;-79
2023/10/24 04:28:06;;;;;;;11.30;9.20;;;;;;;8.99;83.80;100510.27;108335;1251;75121;-78
2023/10/24 04:30:32;;;;;;;13.50;9.60;;;;;;;8.98;83.64;100509.55;108368;1254;60453;-78
2023/10/24 04:32:59;;;;;;;14.30;10.10;;;;;;;8.97;83.78;100514.50;108383;1251;72129;-77
2023/10/24 04:35:27;;;;;;;13.50;9.30;;;;;;;8.98;83.63;100518.60;108343;1255;60399;-79
2023/10/24 04:37:54;;;;;;;12.30;10.00;;;;;;;8.97;83.74;100522.60;108357;1253;60522;-79
2023/10/24 04:40:21;;;;;;;13.30;9.80;;;;;;;8.98;83.79;100528.20;108311;1253;74000;-78
2023/10/24 04:42:50;;;;;;;12.90;9.40;;;;;;;9.00;83.68;100532.23;108305;1254;76033;-79
2023/10/24 04:45:17;;;;;;;12.30;8.70;;;;;;;9.01;83.62;100534.79;108354;1252;72825;-78
2023/10/24 04:47:43;;;;;;;12.10;9.60;;;;;;;9.00;83.56;100538.56;108339;1255;60398;-78
2023/10/24 04:50:12;;;;;;;14.00;9.40;;;;;;;9.00;83.63;100539.48;108299;1251;59316;-78
2023/10/24 04:52:39;;;;;;;15.60;10.20;;;;;;;8.99;83.52;100538.50;108266;1254;74057;-78
2023/10/24 04:55:07;;;;;;;13.50;9.50;;;;;;;8.98;83.67;100538.27;108292;1253;76833;-78
2023/10/24 04:57:34;;;;;;;15.50;10.60;;;;;;;8.97;83.59;100536.55;108287;1251;74263;-78
2023/10/24 05:00:00;;;;;;;16.00;10.70;;;;;;;8.97;83.74;100538.73;108295;1253;61962;-78
2023/10/24 05:02:28;;;;;;;12.90;9.90;;;;;;;8.99;83.69;100539.09;108345;1253;60436;-78
2023/10/24 05:04:55;;;;;;;13.80;10.00;;;;;;;9.03;83.55;100540.64;108346;1254;73793;-78
2023/10/24 05:07:23;;;;;;;14.70;10.40;;;;;;;9.06;83.60;100543.81;108258;1254;72865;-80
2023/10/24 05:09:50;;;;;;;14.50;9.90;;;;;;;9.10;83.65;100546.59;108229;1254;74475;-78
2023/10/24 05:12:17;;;;;;;14.00;10.20;;;;;;;9.14;83.58;100551.54;108301;1253;62009;-77
2023/10/24 05:14:44;;;;;;;13.20;10.10;;;;;;;9.19;83.58;100553.52;108212;1254;60554;-79
2023/10/24 05:17:11;;;;;;;12.00;9.50;;;;;;;9.21;83.35;100551.13;108256;1254;72638;-77
2023/10/24 05:19:39;;;;;;;14.00;10.20;;;;;;;9.20;83.38;100556.35;108253;1254;71346;-78
2023/10/24 05:22:16;;;;;;;12.60;9.80;;;;;;;9.19;83.52;100559.17;108306;1254;71785;-78
2023/10/24 05:24:52;;;;;;;14.00;10.10;;;;;;;9.19;83.58;100562.90;108202;1253;61929;-78
2023/10/24 05:27:18;;;;;;;12.90;9.80;;;;;;;9.18;83.68;100564.37;108240;1252;60559;-78
2023/10/24 05:29:46;;;;;;;13.20;10.50;;;;;;;9.17;83.68;100561.23;108227;1256;74502;-78
2023/10/24 05:32:13;;;;;;;14.90;11.20;;;;;;;9.19;83.73;100567.59;108259;1256;71545;-80
2023/10/24 05:35:23;;;;;;;14.30;10.50;;;;;;;9.17;83.86;100568.36;108271;1251;71260;-78
2023/10/24 05:37:50;;;;;;;14.30;10.40;;;;;;;9.20;84.13;100572.52;108135;1254;64638;-78
2023/10/24 05:40:17;;;;;;;12.60;10.20;;;;;;;9.24;84.14;100575.91;108344;1253;60256;-77
2023/10/24 05:42:44;;;;;;;12.20;9.00;;;;;;;9.30;84.21;100575.89;108301;1252;73901;-77
2023/10/24 05:45:10;;;;;;;11.60;9.70;;;;;;;9.36;84.25;100582.72;108279;1254;72498;-78
2023/10/24 05:47:37;;;;;;;14.10;10.30;;;;;;;9.40;84.19;100586.72;108166;1258;73064;-77
2023/10/24 05:50:06;;;;;;;15.20;9.70;;;;;;;9.44;84.21;100594.77;108238;1253;60724;-78
2023/10/24 05:52:32;;;;;;;14.10;10.60;;;;;;;9.48;84.15;100596.95;108279;1254;60310;-79
2023/10/24 05:54:59;;;;;;;13.70;10.60;;;;;;;9.51;84.00;100596.34;108342;1254;72510;-79
2023/10/24 05:57:29;;;;;;;14.70;10.80;;;;;;;9.53;83.94;100590.98;108340;1254;71994;-78
2023/10/24 05:59:56;;;;;;;13.20;9.80;;;;;;;9.57;84.05;100588.85;108319;1254;72746;-78
2023/10/24 06:02:23;;;;;;;14.20;10.60;;;;;;;9.62;83.99;100588.48;108282;1251;63231;-78
2023/10/24 06:04:51;;;;;;;13.90;10.60;;;;;;;9.64;83.78;100586.86;108272;1252;59470;-78
2023/10/24 06:07:17;;;;;;;14.50;11.10;;;;;;;9.68;83.47;100583.63;108211;1253;73888;-78
2023/10/24 06:09:48;;;;;;;13.30;10.60;;;;;;;9.75;83.55;100589.24;108243;1253;72829;-79
2023/10/24 06:12:15;;;;;;;13.70;10.30;;;;;;;9.82;83.36;100585.33;108219;1253;72845;-77
2023/10/24 06:14:41;;;;;;;12.40;10.50;;;;;;;9.91;83.29;100586.44;108323;1254;59364;-78
2023/10/24 06:17:09;;;;;;;14.40;10.70;;;;;;;10.01;83.38;100587.02;108336;1252;60427;-79
2023/10/24 06:19:39;;;;;;;11.60;9.00;;;;;;;10.13;83.19;100589.36;108362;1251;73869;-80
2023/10/24 06:22:07;;;;;;;12.50;10.40;;;;;;;10.22;82.90;100585.28;108389;1251;73127;-79
2023/10/24 06:24:34;;;;;;;14.20;10.80;;;;;;;10.29;82.73;100588.80;108324;1255;72832;-79
2023/10/24 06:27:02;;;;;;;12.70;10.00;;;;;;;10.37;82.50;100588.38;108479;1253;61022;-79
2023/10/24 06:29:32;;;;;;;12.50;10.20;;;;;;;10.41;81.99;100591.14;108214;1253;59206;-79
2023/10/24 06:32:00;;;;;;;13.50;10.40;;;;;;;10.43;81.56;100593.35;108284;1254;72612;-81
2023/10/24 06:34:26;;;;;;;11.20;8.50;;;;;;;10.45;81.13;100590.80;108332;1254;71906;-77
2023/10/24 06:36:54;;;;;;;13.40;10.20;;;;;;;10.49;80.91;100591.30;108346;1254;72693;-77
2023/10/24 06:39:21;;;;;;;12.80;10.00;;;;;;;10.56;80.81;100593.45;108339;1253;60608;-77
2023/10/24 06:41:48;;;;;;;12.10;9.90;;;;;;;10.66;80.66;100586.63;108353;1254;59620;-77
2023/10/24 06:44:21;;;;;;;12.20;9.20;;;;;;;10.78;80.65;100576.13;108318;1252;74052;-77
2023/10/24 06:46:49;;;;;;;11.90;9.50;;;;;;;10.86;79.97;100577.20;108306;1253;71850;-78
2023/10/24 06:49:16;;;;;;;12.90;10.10;;;;;;;10.90;79.42;100579.15;108371;1253;71484;-78
2023/10/24 06:51:44;;;;;;;13.40;9.60;;;;;;;10.96;79.18;100581.31;108322;1251;60673;-78
2023/10/24 06:54:13;;;;;;;11.20;10.00;;;;;;;11.04;78.84;100586.33;108372;1253;61067;-79
2023/10/24 06:56:39;;;;;;;15.80;10.70;;;;;;;11.12;78.41;100588.09;108321;1254;73890;-79
2023/10/24 06:59:06;;;;;;;12.80;9.40;;;;;;;11.17;77.92;100581.53;108404;1254;71519;-78
2023/10/24 07:01:34;;;;;;;11.30;9.40;;;;;;;11.23;77.56;100577.12;108328;1254;70335;-79
2023/10/24 07:04:01;;;;;;;11.10;9.30;;;;;;;11.28;77.29;100570.40;108370;1256;61929;-79
2023/10/24 07:06:28;;;;;;;13.40;9.50;;;;;;;11.34;77.09;100574.56;108265;1253;59295;-78
2023/10/24 07:09:00;;;;;;;15.60;10.20;;;;;;;11.42;76.77;100573.23;108216;1253;76532;-78
2023/10/24 07:11:27;;;;;;;12.30;9.00;;;;;;;11.46;76.21;100570.73;108301;1254;72135;-79
2023/10/24 07:13:56;;;;;;;12.60;9.80;;;;;;;11.59;75.98;100574.80;108371;1251;72653;-80
2023/10/24 07:16:22;;;;;;;12.90;8.70;;;;;;;11.72;75.87;100577.67;108275;1252;62100;-80
2023/10/24 07:18:51;;;;;;;10.70;8.70;;;;;;;11.83;75.36;100579.42;108234;1253;60408;-77
2023/10/24 07:21:18;;;;;;;12.80;8.30;;;;;;;11.92;74.86;100578.07;108189;1253;73094;-78
2023/10/24 07:23:46;;;;;;;9.80;7.70;;;;;;;12.02;74.35;100577.86;108360;1253;71371;-77
2023/10/24 07:26:13;;;;;;;11.00;7.90;;;;;;;12.11;73.96;100580.67;108320;1252;70351;-77
2023/10/24 07:28:40;;;;;;;9.60;7.50;;;;;;;12.19;73.18;100578.96;108256;1253;60740;-77
2023/10/24 07:31:07;;;;;;;12.10;7.80;;;;;;;12.25;72.54;100576.66;108234;1253;60434;-78
2023/10/24 07:33:34;;;;;;;10.60;7.80;;;;;;;12.32;72.20;100578.38;108263;1253;73812;-77
2023/10/24 07:36:07;;;;;;;11.10;8.10;;;;;;;12.42;71.95;100581.06;108150;1254;75084;-77
2023/10/24 07:38:34;;;;;;;10.00;7.30;;;;;;;12.53;71.70;100576.33;108160;1254;72744;-77
2023/10/24 07:41:01;;;;;;;9.70;6.70;;;;;;;12.63;71.22;100577.92;108280;1254;60947;-77
2023/10/24 07:43:27;;;;;;;9.40;7.30;;;;;;;12.75;70.83;100577.23;108292;1254;60272;-78
2023/10/24 07:45:54;;;;;;;10.60;6.60;;;;;;;12.83;70.55;100580.20;108203;1253;72506;-77
2023/10/24 07:48:23;;;;;;;9.30;6.80;;;;;;;12.96;69.67;100578.52;108215;1256;71845;-75
2023/10/24 07:50:54;;;;;;;8.60;6.40;;;;;;;13.05;68.72;100576.14;108258;1256;72942;-77
2023/10/24 07:53:21;;;;;;;8.80;6.00;;;;;;;13.13;67.90;100578.58;108252;1254;61924;-79
2023/10/24 07:55:48;;;;;;;7.30;5.90;;;;;;;13.21;67.52;100573.98;108318;1251;60607;-80
2023/10/24 07:58:17;;;;;;;7.90;5.30;;;;;;;13.29;67.06;100572.45;108265;1254;72581;-79
2023/10/24 08:00:47;;;;;;;7.50;5.10;;;;;;;13.35;66.37;100564.41;108249;1254;71633;-78
2023/10/24 08:03:14;;;;;;;8.10;4.90;;;;;;;13.46;65.91;100567.25;108230;1254;72076;-79
2023/10/24 08:05:41;;;;;;;6.30;4.60;;;;;;;13.59;65.36;100565.66;108276;1252;60407;-78
2023/10/24 08:08:08;;;;;;;7.00;5.00;;;;;;;13.72;64.41;100567.40;108209;1256;60426;-78
2023/10/24 08:10:34;;;;;;;7.40;5.30;;;;;;;13.78;63.62;100565.86;108223;1254;72618;-77
2023/10/24 08:13:02;;;;;;;7.20;4.80;;;;;;;13.82;62.86;100563.20;108222;1254;71593;-77
2023/10/24 08:15:29;;;;;;;7.80;4.70;;;;;;;13.88;62.55;100565.90;108260;1251;72913;-77
2023/10/24 08:17:57;;;;;;;7.30;5.20;;;;;;;13.95;62.44;100563.17;108290;1254;60436;-77
2023/10/24 08:20:23;;;;;;;8.40;5.20;;;;;;;14.02;62.23;100565.77;108241;1253;60506;-78
2023/10/24 08:22:51;;;;;;;6.80;5.40;;;;;;;14.03;61.65;100568.45;108194;1256;73894;-78
2023/10/24 08:25:18;;;;;;;7.10;5.20;;;;;;;14.04;61.72;100569.23;108235;1256;72828;-79
2023/10/24 08:27:45;;;;;;;7.00;4.70;;;;;;;14.10;61.46;100568.39;108309;1254;71783;-79
2023/10/24 08:30:12;;;;;;;6.50;4.70;;;;;;;14.18;61.21;100568.53;108177;1252;61707;-79
2023/10/24 08:32:38;;;;;;;6.80;4.10;;;;;;;14.28;60.80;100571.48;108317;1252;60380;-77
2023/10/24 08:35:06;;;;;;;7.00;4.30;;;;;;;14.39;60.05;100572.02;108419;1251;73879;-78
2023/10/24 08:37:34;;;;;;;6.60;4.30;;;;;;;14.49;59.81;100572.75;108299;1251;71373;-78
2023/10/24 08:40:01;;;;;;;6.60;4.60;;;;;;;14.57;58.96;100567.90;108375;1254;71690;-77
2023/10/24 08:42:29;;;;;;;7.40;4.60;;;;;;;14.59;58.40;100563.81;108443;1253;60251;-77
2023/10/24 08:44:57;;;;;;;6.90;4.40;;;;;;;14.63;58.41;100564.27;108320;1252;60389;-80
2023/10/24 08:47:24;;;;;;;6.80;4.40;;;;;;;14.69;58.49;100565.27;108338;1253;72518;-78
2023/10/24 08:49:50;;;;;;;5.80;4.00;;;;;;;14.79;58.27;100565.77;108132;1251;72675;-79
2023/10/24 08:52:17;;;;;;;6.70;4.10;;;;;;;14.85;57.96;100559.48;108172;1254;60334;-78
2023/10/24 08:55:01;;;;;;;5.90;3.70;;;;;;;14.96;57.83;100562.04;108216;1253;60443;-78
2023/10/24 08:57:34;;;;;;;6.40;3.20;;;;;;;15.06;56.88;100561.06;108358;1253;59546;-78
2023/10/24 09:00:01;;;;;;;6.50;3.40;;;;;;;15.12;55.67;100563.26;108293;1254;72770;-78
2023/10/24 09:02:28;;;;;;;5.40;3.00;;;;;;;15.17;55.15;100558.25;108257;1254;72865;-79
2023/10/24 09:04:55;;;;;;;7.50;3.50;;;;;;;15.21;54.90;100564.07;108297;1256;74484;-78
2023/10/24 09:07:22;;;;;;;6.10;3.10;;;;;;;15.23;54.54;100555.98;108282;1256;61384;-79
2023/10/24 09:09:49;;;;;;;5.20;2.80;;;;;;;15.26;54.51;100554.05;108282;1254;60328;-77
2023/10/24 09:12:16;;;;;;;5.60;3.00;;;;;;;15.26;53.95;100554.91;108216;1254;73484;-78
2023/10/24 09:14:48;;;;;;;4.20;2.60;;;;;;;15.29;53.75;100556.28;108377;1254;71892;-79
2023/10/24 09:17:21;;;;;;;6.20;3.10;;;;;;;15.33;53.58;100563.45;108370;1254;73598;-78
2023/10/24 09:19:48;;;;;;;4.90;3.10;;;;;;;15.37;53.11;100562.27;108249;1254;60514;-77
2023/10/24 09:22:16;;;;;;;4.20;2.80;;;;;;;15.44;53.41;100554.90;108371;1254;61221;-78
2023/10/24 09:24:45;;;;;;;6.70;3.10;;;;;;;15.55;53.21;100548.52;108386;1252;73565;-79
2023/10/24 09:27:16;;;;;;;5.00;2.90;;;;;;;15.65;52.58;100541.86;108325;1254;73130;-79
2023/10/24 09:29:43;;;;;;;4.50;2.50;;;;;;;15.67;51.82;100537.34;108308;1255;72321;-80
2023/10/24 09:32:17;;;;;;;6.90;3.00;;;;;;;15.70;52.09;100539.87;108334;1254;61100;-77
2023/10/24 09:34:44;;;;;;;5.90;3.30;;;;;;;15.75;51.56;100543.37;108294;1254;61170;-78
2023/10/24 09:37:13;;;;;;;5.80;2.80;;;;;;;15.71;51.22;100545.42;108363;1254;73635;-79
2023/10/24 09:39:54;;;;;;;4.60;2.70;;;;;;;15.71;51.23;100539.11;108335;1254;72909;-79
2023/10/24 09:42:25;;;;;;;4.50;2.90;;;;;;;15.78;51.43;100531.80;108258;1253;72709;-79
2023/10/24 09:45:00;;;;;;;4.60;3.00;;;;;;;15.84;50.92;100529.38;108239;1254;60135;-79
2023/10/24 09:47:28;;;;;;;5.70;3.20;;;;;;;15.92;51.29;100525.64;108315;1254;59694;-78
2023/10/24 09:49:57;;;;;;;5.50;3.00;;;;;;;15.97;51.23;100519.01;108289;1256;75830;-79
2023/10/24 09:52:25;;;;;;;5.80;3.40;;;;;;;16.05;50.86;100521.52;108244;1256;72869;-78
2023/10/24 09:54:52;;;;;;;5.70;3.10;;;;;;;16.10;50.41;100521.60;108233;1254;72423;-77
2023/10/24 09:57:21;;;;;;;4.60;2.90;;;;;;;16.17;50.06;100522.09;108229;1253;61252;-78
2023/10/24 09:59:49;;;;;;;5.20;3.30;;;;;;;16.18;49.87;100517.59;108217;1254;59910;-79
2023/10/24 10:02:19;;;;;;;5.80;3.40;;;;;;;16.21;49.96;100513.44;108267;1254;74653;-80
2023/10/24 10:04:50;;;;;;;4.70;3.30;;;;;;;16.26;49.48;100512.27;108215;1255;72901;-79
2023/10/24 10:07:17;;;;;;;4.70;2.90;;;;;;;16.24;48.75;100513.11;108350;1254;72763;-77
2023/10/24 10:09:48;;;;;;;5.20;3.30;;;;;;;16.18;48.82;100513.54;108322;1254;61221;-79
2023/10/24 10:12:17;;;;;;;5.30;2.60;;;;;;;16.18;48.77;100511.05;108149;1252;60455;-77
2023/10/24 10:15:11;;;;;;;4.80;2.70;;;;;;;16.17;48.36;100505.25;108202;1253;78543;-78
2023/10/24 10:17:55;;;;;;;5.10;2.70;;;;;;;16.15;48.18;100509.21;108279;1254;71613;-78
2023/10/24 10:21:00;;;;;;;5.60;2.80;;;;;;;16.15;47.88;100505.94;108249;1254;72410;-78
2023/10/24 10:23:50;;;;;;;4.60;2.80;;;;;;;16.15;47.76;100505.77;108219;1253;62443;-79
2023/10/24 10:26:30;;;;;;;6.60;2.90;;;;;;;16.20;47.88;100504.52;108198;1254;61223;-78
2023/10/24 10:29:25;;;;;;;4.50;2.70;;;;;;;16.21;47.81;100503.42;108239;1254;73577;-79
2023/10/24 10:31:56;;;;;;;7.80;3.30;;;;;;;16.16;47.76;100504.25;108319;1255;74345;-80
2023/10/24 10:34:43;;;;;;;5.00;2.60;;;;;;;16.18;48.18;100502.23;108318;1254;72685;-78
2023/10/24 10:37:10;;;;;;;5.10;3.10;;;;;;;16.31;48.41;100499.56;108285;1254;60369;-78
2023/10/24 10:39:37;;;;;;;5.30;3.00;;;;;;;16.46;48.08;100500.81;108311;1254;60496;-78
2023/10/24 10:42:04;;;;;;;6.40;2.90;;;;;;;16.62;48.37;100494.16;108357;1254;74332;-78
2023/10/24 10:44:34;;;;;;;5.50;3.20;;;;;;;16.77;48.38;100492.60;108223;1254;71485;-78
2023/10/24 10:47:05;;;;;;;4.20;2.50;;;;;;;16.89;47.95;100490.23;108304;1254;72746;-78
2023/10/24 10:49:53;;;;;;;5.90;3.00;;;;;;;16.97;47.58;100486.48;108327;1254;59822;-77
2023/10/24 10:52:38;;;;;;;5.90;2.70;;;;;;;17.03;47.04;100487.02;108259;1254;60999;-80
2023/10/24 10:55:18;;;;;;;5.70;2.90;;;;;;;17.08;46.60;100485.61;108240;1254;74646;-77
2023/10/24 10:58:01;;;;;;;4.50;2.90;;;;;;;16.99;45.92;100482.46;108157;1253;71690;-77
2023/10/24 11:00:34;;;;;;;4.50;3.00;;;;;;;16.78;45.82;100478.40;108312;1254;73203;-77
2023/10/24 11:03:23;;;;;;;5.00;2.60;;;;;;;16.58;46.18;100482.15;108382;1255;61682;-78
2023/10/24 11:05:54;;;;;;;4.70;3.00;;;;;;;16.43;46.43;100480.44;108097;1258;61447;-80
2023/10/24 11:08:23;;;;;;;5.00;2.80;;;;;;;16.35;46.79;100480.38;108308;1254;73543;-79
2023/10/24 11:10:54;;;;;;;4.20;2.60;;;;;;;16.31;47.25;100474.67;108277;1255;74510;-76
2023/10/24 11:13:44;;;;;;;5.20;3.10;;;;;;;16.29;47.30;100466.04;108236;1256;72737;-78
2023/10/24 11:16:19;;;;;;;3.60;2.50;;;;;;;16.27;47.09;100456.15;108332;1254;61601;-78
2023/10/24 11:19:03;;;;;;;3.90;2.70;;;;;;;16.23;47.02;100457.57;108352;1256;61381;-79
2023/10/24 11:21:30;;;;;;;5.00;2.50;;;;;;;16.13;46.74;100457.04;108248;1257;75609;-78
2023/10/24 11:23:59;;;;;;;4.70;2.80;;;;;;;16.04;46.78;100454.60;108318;1255;72382;-79
2023/10/24 11:26:27;;;;;;;4.00;2.70;;;;;;;15.93;47.00;100456.48;108361;1254;73663;-78